AUA188V EDDM-LOWW
Flight info
| Callsign | AUA188V |
|---|---|
| Flight time | 0h 40m |
| Altitude | 23000 |
| Route | KIRDI3S/26L KIRDI DCT BUWOQ/N0386F270 DCT MASUR MASUR3W |
| Aircraft | E195/M-SDE3GILORVW/S |
Departure
| Time | 2026-05-06 17:28 |
|---|---|
| Airport | Munich Airport (EDDM) |
Arrival
| Time | 2026-05-06 18:08 |
|---|---|
| Airport | Vienna International Airport (LOWW) |
| Time | Latitude | Longitude | Altitude | Speed | Heading |
|---|---|---|---|---|---|
| 2026-05-06 16:57 | 48.35587 | 11.79998 | 1468 ft | 0 kts | 263° |
| 2026-05-06 17:13 | 48.35589 | 11.80018 | 1469 ft | 1 kts | 263° |
| 2026-05-06 17:14 | 48.35590 | 11.80032 | 1469 ft | 2 kts | 255° |
| 2026-05-06 17:14 | 48.35597 | 11.80052 | 1469 ft | 2 kts | 229° |
| 2026-05-06 17:14 | 48.35608 | 11.80066 | 1468 ft | 2 kts | 206° |
| 2026-05-06 17:14 | 48.35623 | 11.80073 | 1468 ft | 2 kts | 183° |
| 2026-05-06 17:15 | 48.35630 | 11.80072 | 1468 ft | 1 kts | 169° |
| 2026-05-06 17:15 | 48.35635 | 11.80071 | 1468 ft | 0 kts | 173° |
| 2026-05-06 17:19 | 48.35632 | 11.80072 | 1468 ft | 0 kts | 173° |
| 2026-05-06 17:19 | 48.35618 | 11.80074 | 1468 ft | 3 kts | 174° |
| 2026-05-06 17:19 | 48.35577 | 11.80080 | 1469 ft | 8 kts | 174° |
| 2026-05-06 17:19 | 48.35504 | 11.80093 | 1469 ft | 12 kts | 174° |
| 2026-05-06 17:20 | 48.35416 | 11.80110 | 1470 ft | 12 kts | 171° |
| 2026-05-06 17:20 | 48.35336 | 11.80129 | 1471 ft | 11 kts | 171° |
| 2026-05-06 17:20 | 48.35261 | 11.80143 | 1471 ft | 10 kts | 175° |
| 2026-05-06 17:20 | 48.35193 | 11.80151 | 1471 ft | 9 kts | 185° |
| 2026-05-06 17:21 | 48.35160 | 11.80085 | 1472 ft | 8 kts | 262° |
| 2026-05-06 17:21 | 48.35153 | 11.79995 | 1472 ft | 8 kts | 263° |
| 2026-05-06 17:21 | 48.35147 | 11.79911 | 1472 ft | 7 kts | 263° |
| 2026-05-06 17:21 | 48.35141 | 11.79836 | 1472 ft | 6 kts | 263° |
| 2026-05-06 17:22 | 48.35135 | 11.79760 | 1472 ft | 8 kts | 264° |
| 2026-05-06 17:22 | 48.35119 | 11.79676 | 1473 ft | 8 kts | 227° |
| 2026-05-06 17:22 | 48.35065 | 11.79656 | 1473 ft | 8 kts | 174° |
| 2026-05-06 17:22 | 48.35003 | 11.79667 | 1473 ft | 9 kts | 173° |
| 2026-05-06 17:23 | 48.34956 | 11.79675 | 1473 ft | 2 kts | 173° |
| 2026-05-06 17:23 | 48.34932 | 11.79679 | 1473 ft | 3 kts | 174° |
| 2026-05-06 17:23 | 48.34902 | 11.79684 | 1473 ft | 0 kts | 173° |
| 2026-05-06 17:24 | 48.34899 | 11.79685 | 1473 ft | 1 kts | 174° |
| 2026-05-06 17:24 | 48.34876 | 11.79689 | 1474 ft | 4 kts | 174° |
| 2026-05-06 17:24 | 48.34842 | 11.79694 | 1474 ft | 5 kts | 174° |
| 2026-05-06 17:25 | 48.34801 | 11.79701 | 1474 ft | 6 kts | 173° |
| 2026-05-06 17:25 | 48.34750 | 11.79710 | 1474 ft | 7 kts | 174° |
| 2026-05-06 17:25 | 48.34703 | 11.79701 | 1474 ft | 6 kts | 223° |
| 2026-05-06 17:25 | 48.34675 | 11.79648 | 1474 ft | 6 kts | 233° |
| 2026-05-06 17:26 | 48.34645 | 11.79588 | 1474 ft | 7 kts | 235° |
| 2026-05-06 17:26 | 48.34607 | 11.79509 | 1475 ft | 11 kts | 233° |
| 2026-05-06 17:26 | 48.34551 | 11.79398 | 1475 ft | 15 kts | 233° |
| 2026-05-06 17:26 | 48.34479 | 11.79252 | 1476 ft | 19 kts | 233° |
| 2026-05-06 17:27 | 48.34400 | 11.79088 | 1477 ft | 19 kts | 235° |
| 2026-05-06 17:27 | 48.34356 | 11.78855 | 1478 ft | 46 kts | 264° |
| 2026-05-06 17:27 | 48.34284 | 11.77928 | 1481 ft | 131 kts | 264° |
| 2026-05-06 17:27 | 48.34152 | 11.76290 | 1823 ft | 170 kts | 263° |
| 2026-05-06 17:28 | 48.34000 | 11.74532 | 2797 ft | 176 kts | 266° |
| 2026-05-06 17:28 | 48.33866 | 11.72795 | 3727 ft | 176 kts | 260° |
| 2026-05-06 17:28 | 48.33098 | 11.71244 | 4321 ft | 206 kts | 215° |
| 2026-05-06 17:28 | 48.31615 | 11.70811 | 4983 ft | 234 kts | 186° |
| 2026-05-06 17:29 | 48.29971 | 11.70795 | 5848 ft | 245 kts | 186° |
| 2026-05-06 17:29 | 48.28315 | 11.71298 | 6826 ft | 246 kts | 157° |
| 2026-05-06 17:29 | 48.26773 | 11.72764 | 7006 ft | 281 kts | 149° |
| 2026-05-06 17:29 | 48.25120 | 11.74462 | 7011 ft | 290 kts | 149° |
| 2026-05-06 17:30 | 48.23436 | 11.76179 | 6999 ft | 291 kts | 149° |
| 2026-05-06 17:30 | 48.21774 | 11.77867 | 6996 ft | 289 kts | 149° |
| 2026-05-06 17:30 | 48.20099 | 11.79566 | 6999 ft | 288 kts | 149° |
| 2026-05-06 17:30 | 48.18712 | 11.81722 | 7008 ft | 296 kts | 119° |
| 2026-05-06 17:31 | 48.18249 | 11.84708 | 7023 ft | 299 kts | 87° |
| 2026-05-06 17:31 | 48.18463 | 11.87792 | 7015 ft | 300 kts | 83° |
| 2026-05-06 17:31 | 48.18693 | 11.90873 | 7003 ft | 300 kts | 83° |
| 2026-05-06 17:31 | 48.18919 | 11.93977 | 7023 ft | 298 kts | 83° |
| 2026-05-06 17:32 | 48.19147 | 11.97165 | 7421 ft | 317 kts | 84° |
| 2026-05-06 17:32 | 48.19379 | 12.00434 | 8508 ft | 315 kts | 85° |
| 2026-05-06 17:32 | 48.19603 | 12.03597 | 9815 ft | 304 kts | 87° |
| 2026-05-06 17:32 | 48.19818 | 12.06679 | 10912 ft | 302 kts | 87° |
| 2026-05-06 17:33 | 48.20036 | 12.09828 | 11652 ft | 313 kts | 87° |
| 2026-05-06 17:33 | 48.20264 | 12.13130 | 12238 ft | 330 kts | 87° |
| 2026-05-06 17:33 | 48.20504 | 12.16606 | 12914 ft | 343 kts | 87° |
| 2026-05-06 17:33 | 48.20752 | 12.20203 | 13732 ft | 352 kts | 86° |
| 2026-05-06 17:34 | 48.21003 | 12.23837 | 14660 ft | 357 kts | 87° |
| 2026-05-06 17:34 | 48.21252 | 12.27502 | 15625 ft | 359 kts | 87° |
| 2026-05-06 17:34 | 48.21502 | 12.31166 | 16892 ft | 350 kts | 87° |
| 2026-05-06 17:34 | 48.21742 | 12.34716 | 17969 ft | 345 kts | 87° |
| 2026-05-06 17:35 | 48.21978 | 12.38246 | 18811 ft | 347 kts | 87° |
| 2026-05-06 17:35 | 48.22221 | 12.41888 | 19536 ft | 353 kts | 87° |
| 2026-05-06 17:35 | 48.22467 | 12.45572 | 20228 ft | 360 kts | 87° |
| 2026-05-06 17:36 | 48.22965 | 12.53116 | 21614 ft | 371 kts | 87° |
| 2026-05-06 17:36 | 48.23106 | 12.56936 | 22341 ft | 370 kts | 98° |
| 2026-05-06 17:36 | 48.22790 | 12.60789 | 22668 ft | 383 kts | 102° |
| 2026-05-06 17:36 | 48.22414 | 12.64798 | 22770 ft | 392 kts | 101° |
| 2026-05-06 17:37 | 48.22031 | 12.68858 | 22774 ft | 397 kts | 102° |
| 2026-05-06 17:37 | 48.21644 | 12.72954 | 22767 ft | 398 kts | 102° |
| 2026-05-06 17:37 | 48.21256 | 12.77037 | 22764 ft | 397 kts | 102° |
| 2026-05-06 17:37 | 48.20869 | 12.81134 | 22769 ft | 399 kts | 101° |
| 2026-05-06 17:38 | 48.20814 | 12.85284 | 22785 ft | 403 kts | 92° |
| 2026-05-06 17:38 | 48.20881 | 12.89499 | 22771 ft | 403 kts | 92° |
| 2026-05-06 17:38 | 48.20943 | 12.93637 | 22768 ft | 402 kts | 92° |
| 2026-05-06 17:38 | 48.21005 | 12.97829 | 22761 ft | 402 kts | 92° |
| 2026-05-06 17:39 | 48.21066 | 13.02047 | 22763 ft | 404 kts | 92° |
| 2026-05-06 17:39 | 48.21125 | 13.06197 | 22755 ft | 403 kts | 92° |
| 2026-05-06 17:39 | 48.21182 | 13.10427 | 22756 ft | 403 kts | 92° |
| 2026-05-06 17:39 | 48.21236 | 13.14618 | 22751 ft | 404 kts | 92° |
| 2026-05-06 17:40 | 48.21290 | 13.18798 | 22751 ft | 406 kts | 92° |
| 2026-05-06 17:40 | 48.21343 | 13.23049 | 22808 ft | 415 kts | 92° |
| 2026-05-06 17:40 | 48.21395 | 13.27355 | 23378 ft | 422 kts | 92° |
| 2026-05-06 17:40 | 48.21447 | 13.31759 | 24247 ft | 420 kts | 92° |
| 2026-05-06 17:41 | 48.21497 | 13.36092 | 25061 ft | 420 kts | 92° |
| 2026-05-06 17:41 | 48.21545 | 13.40481 | 25742 ft | 423 kts | 92° |
| 2026-05-06 17:41 | 48.21591 | 13.44900 | 26313 ft | 429 kts | 93° |
| 2026-05-06 17:41 | 48.21637 | 13.49349 | 26696 ft | 432 kts | 93° |
| 2026-05-06 17:42 | 48.21681 | 13.53939 | 26734 ft | 451 kts | 92° |
| 2026-05-06 17:42 | 48.21725 | 13.58685 | 26733 ft | 464 kts | 92° |
| 2026-05-06 17:42 | 48.21770 | 13.63522 | 26727 ft | 463 kts | 92° |
| 2026-05-06 17:42 | 48.21812 | 13.68390 | 26716 ft | 463 kts | 93° |
| 2026-05-06 17:43 | 48.21852 | 13.73234 | 26708 ft | 464 kts | 94° |
| 2026-05-06 17:43 | 48.21889 | 13.78049 | 26702 ft | 465 kts | 94° |
| 2026-05-06 17:43 | 48.21925 | 13.82877 | 26704 ft | 463 kts | 94° |
| 2026-05-06 17:43 | 48.21957 | 13.87692 | 26700 ft | 464 kts | 93° |
| 2026-05-06 17:44 | 48.21989 | 13.92491 | 26705 ft | 464 kts | 94° |
| 2026-05-06 17:44 | 48.22039 | 13.97307 | 26698 ft | 467 kts | 90° |
| 2026-05-06 17:44 | 48.22722 | 14.02089 | 26721 ft | 472 kts | 75° |
| 2026-05-06 17:44 | 48.23708 | 14.06771 | 26702 ft | 473 kts | 75° |
| 2026-05-06 17:45 | 48.24707 | 14.11466 | 26698 ft | 472 kts | 75° |
| 2026-05-06 17:45 | 48.25699 | 14.16136 | 26692 ft | 472 kts | 75° |
| 2026-05-06 17:45 | 48.26701 | 14.20856 | 26691 ft | 472 kts | 75° |
| 2026-05-06 17:45 | 48.27687 | 14.25513 | 26694 ft | 472 kts | 74° |
| 2026-05-06 17:46 | 48.28674 | 14.30183 | 26691 ft | 470 kts | 75° |
| 2026-05-06 17:46 | 48.29661 | 14.34865 | 26692 ft | 470 kts | 75° |
| 2026-05-06 17:46 | 48.30629 | 14.39466 | 26678 ft | 462 kts | 75° |
| 2026-05-06 17:46 | 48.31596 | 14.44070 | 26686 ft | 457 kts | 75° |
| 2026-05-06 17:47 | 48.32546 | 14.48612 | 26685 ft | 456 kts | 75° |
| 2026-05-06 17:47 | 48.33493 | 14.53145 | 26640 ft | 458 kts | 75° |
| 2026-05-06 17:47 | 48.34439 | 14.57682 | 26164 ft | 457 kts | 75° |
| 2026-05-06 17:47 | 48.35373 | 14.62176 | 25671 ft | 452 kts | 75° |
| 2026-05-06 17:48 | 48.36304 | 14.66663 | 25178 ft | 445 kts | 76° |
| 2026-05-06 17:48 | 48.37221 | 14.71087 | 24687 ft | 440 kts | 76° |
| 2026-05-06 17:48 | 48.38116 | 14.75422 | 24212 ft | 436 kts | 76° |
| 2026-05-06 17:48 | 48.38999 | 14.79704 | 23740 ft | 432 kts | 76° |
| 2026-05-06 17:49 | 48.39883 | 14.84001 | 23269 ft | 429 kts | 76° |
| 2026-05-06 17:49 | 48.40759 | 14.88272 | 22797 ft | 426 kts | 76° |
| 2026-05-06 17:49 | 48.41622 | 14.92486 | 22332 ft | 424 kts | 76° |
| 2026-05-06 17:49 | 48.42478 | 14.96670 | 21872 ft | 419 kts | 76° |
| 2026-05-06 17:50 | 48.43335 | 15.00870 | 21411 ft | 417 kts | 76° |
| 2026-05-06 17:50 | 48.44183 | 15.05039 | 20956 ft | 414 kts | 76° |
| 2026-05-06 17:50 | 48.45016 | 15.09138 | 20509 ft | 411 kts | 76° |
| 2026-05-06 17:50 | 48.45846 | 15.13236 | 20060 ft | 409 kts | 76° |
| 2026-05-06 17:51 | 48.46670 | 15.17312 | 19615 ft | 408 kts | 76° |
| 2026-05-06 17:51 | 48.47487 | 15.21355 | 19173 ft | 404 kts | 76° |
| 2026-05-06 17:51 | 48.48296 | 15.25376 | 18731 ft | 402 kts | 76° |
| 2026-05-06 17:51 | 48.49101 | 15.29378 | 18290 ft | 399 kts | 76° |
| 2026-05-06 17:52 | 48.49896 | 15.33338 | 17856 ft | 397 kts | 76° |
| 2026-05-06 17:52 | 48.50694 | 15.37331 | 17416 ft | 394 kts | 76° |
| 2026-05-06 17:52 | 48.51480 | 15.41263 | 16979 ft | 392 kts | 76° |
| 2026-05-06 17:52 | 48.51847 | 15.45230 | 16629 ft | 378 kts | 96° |
| 2026-05-06 17:53 | 48.51689 | 15.49160 | 16718 ft | 378 kts | 97° |
| 2026-05-06 17:53 | 48.51489 | 15.53088 | 16707 ft | 380 kts | 98° |
| 2026-05-06 17:53 | 48.51274 | 15.57051 | 16702 ft | 379 kts | 98° |
| 2026-05-06 17:53 | 48.51053 | 15.61001 | 16491 ft | 380 kts | 98° |
| 2026-05-06 17:54 | 48.50828 | 15.64982 | 16018 ft | 378 kts | 98° |
| 2026-05-06 17:54 | 48.50605 | 15.68854 | 15567 ft | 374 kts | 99° |
| 2026-05-06 17:54 | 48.50380 | 15.72718 | 15101 ft | 369 kts | 98° |
| 2026-05-06 17:54 | 48.50155 | 15.76569 | 14636 ft | 364 kts | 98° |
| 2026-05-06 17:55 | 48.49934 | 15.80322 | 14186 ft | 361 kts | 98° |
| 2026-05-06 17:55 | 48.49714 | 15.84042 | 13735 ft | 356 kts | 98° |
| 2026-05-06 17:55 | 48.49495 | 15.87719 | 13292 ft | 354 kts | 98° |
| 2026-05-06 17:55 | 48.49276 | 15.91390 | 12839 ft | 352 kts | 98° |
| 2026-05-06 17:56 | 48.49056 | 15.95038 | 12386 ft | 350 kts | 98° |
| 2026-05-06 17:56 | 48.48835 | 15.98696 | 11932 ft | 345 kts | 97° |
| 2026-05-06 17:56 | 48.48623 | 16.02189 | 11481 ft | 337 kts | 97° |
| 2026-05-06 17:56 | 48.48410 | 16.05692 | 11017 ft | 329 kts | 97° |
| 2026-05-06 17:57 | 48.48195 | 16.09052 | 10558 ft | 323 kts | 101° |
| 2026-05-06 17:57 | 48.47577 | 16.12213 | 10117 ft | 313 kts | 112° |
| 2026-05-06 17:57 | 48.46835 | 16.15237 | 9638 ft | 305 kts | 113° |
| 2026-05-06 17:57 | 48.46108 | 16.18191 | 9175 ft | 295 kts | 114° |
| 2026-05-06 17:58 | 48.45296 | 16.20929 | 8705 ft | 282 kts | 131° |
| 2026-05-06 17:58 | 48.43801 | 16.22639 | 8294 ft | 265 kts | 166° |
| 2026-05-06 17:58 | 48.42010 | 16.22711 | 7942 ft | 257 kts | 199° |
| 2026-05-06 17:58 | 48.40376 | 16.21745 | 7560 ft | 255 kts | 205° |
| 2026-05-06 17:59 | 48.38768 | 16.20665 | 7125 ft | 254 kts | 205° |
| 2026-05-06 17:59 | 48.37094 | 16.19800 | 6673 ft | 254 kts | 190° |
| 2026-05-06 17:59 | 48.35348 | 16.19930 | 6351 ft | 251 kts | 175° |
| 2026-05-06 17:59 | 48.33647 | 16.20312 | 6117 ft | 242 kts | 175° |
| 2026-05-06 18:00 | 48.32022 | 16.20684 | 5881 ft | 235 kts | 175° |
| 2026-05-06 18:00 | 48.30426 | 16.21029 | 5647 ft | 228 kts | 175° |
| 2026-05-06 18:00 | 48.28898 | 16.21349 | 5352 ft | 218 kts | 175° |
| 2026-05-06 18:00 | 48.27422 | 16.21678 | 5149 ft | 209 kts | 175° |
| 2026-05-06 18:01 | 48.26018 | 16.21998 | 4976 ft | 200 kts | 175° |
| 2026-05-06 18:01 | 48.24692 | 16.22098 | 4943 ft | 185 kts | 201° |
| 2026-05-06 18:01 | 48.23489 | 16.21435 | 4933 ft | 187 kts | 185° |
| 2026-05-06 18:01 | 48.22172 | 16.21572 | 4733 ft | 192 kts | 175° |
| 2026-05-06 18:02 | 48.20931 | 16.22255 | 4470 ft | 206 kts | 133° |
| 2026-05-06 18:02 | 48.20433 | 16.24274 | 4246 ft | 219 kts | 94° |
| 2026-05-06 18:02 | 48.20626 | 16.26526 | 4029 ft | 216 kts | 94° |
| 2026-05-06 18:02 | 48.20287 | 16.28547 | 4061 ft | 191 kts | 121° |
| 2026-05-06 18:03 | 48.19735 | 16.30361 | 3919 ft | 189 kts | 122° |
| 2026-05-06 18:03 | 48.19190 | 16.32097 | 3697 ft | 183 kts | 124° |
| 2026-05-06 18:03 | 48.18646 | 16.33799 | 3511 ft | 174 kts | 124° |
| 2026-05-06 18:03 | 48.18121 | 16.35425 | 3280 ft | 172 kts | 124° |
| 2026-05-06 18:04 | 48.17601 | 16.37026 | 3026 ft | 172 kts | 124° |
| 2026-05-06 18:04 | 48.17103 | 16.38569 | 2762 ft | 157 kts | 124° |
| 2026-05-06 18:04 | 48.16653 | 16.39962 | 2528 ft | 142 kts | 126° |
| 2026-05-06 18:04 | 48.16232 | 16.41252 | 2361 ft | 133 kts | 126° |
| 2026-05-06 18:05 | 48.15852 | 16.42426 | 2163 ft | 121 kts | 126° |
| 2026-05-06 18:05 | 48.15486 | 16.43544 | 2014 ft | 118 kts | 127° |
| 2026-05-06 18:05 | 48.15120 | 16.44661 | 1865 ft | 120 kts | 127° |
| 2026-05-06 18:05 | 48.14753 | 16.45788 | 1709 ft | 120 kts | 127° |
| 2026-05-06 18:06 | 48.14386 | 16.46912 | 1551 ft | 120 kts | 127° |
| 2026-05-06 18:06 | 48.14024 | 16.48023 | 1382 ft | 119 kts | 125° |
| 2026-05-06 18:06 | 48.13657 | 16.49146 | 1225 ft | 118 kts | 124° |
| 2026-05-06 18:06 | 48.13295 | 16.50254 | 1062 ft | 120 kts | 123° |
| 2026-05-06 18:07 | 48.12931 | 16.51370 | 898 ft | 118 kts | 123° |
| 2026-05-06 18:07 | 48.12570 | 16.52469 | 746 ft | 117 kts | 122° |
| 2026-05-06 18:07 | 48.12210 | 16.53572 | 599 ft | 116 kts | 122° |
| 2026-05-06 18:07 | 48.11884 | 16.54553 | 578 ft | 87 kts | 117° |
| 2026-05-06 18:08 | 48.11687 | 16.55159 | 582 ft | 45 kts | 114° |
| 2026-05-06 18:08 | 48.11568 | 16.55522 | 582 ft | 38 kts | 115° |
| 2026-05-06 18:08 | 48.11503 | 16.55850 | 585 ft | 22 kts | 96° |
| 2026-05-06 18:08 | 48.11503 | 16.56018 | 585 ft | 14 kts | 86° |
| 2026-05-06 18:09 | 48.11505 | 16.56066 | 586 ft | 0 kts | 81° |
| 2026-05-06 18:09 | 48.11507 | 16.56076 | 586 ft | 3 kts | 76° |
| 2026-05-06 18:09 | 48.11524 | 16.56126 | 587 ft | 8 kts | 37° |
| 2026-05-06 18:09 | 48.11552 | 16.56221 | 589 ft | 13 kts | 111° |
| 2026-05-06 18:10 | 48.11530 | 16.56353 | 592 ft | 12 kts | 56° |
| 2026-05-06 18:10 | 48.11561 | 16.56474 | 597 ft | 15 kts | 111° |
| 2026-05-06 18:10 | 48.11505 | 16.56636 | 600 ft | 16 kts | 118° |
| 2026-05-06 18:10 | 48.11461 | 16.56784 | 602 ft | 15 kts | 116° |
| 2026-05-06 18:11 | 48.11410 | 16.56929 | 604 ft | 15 kts | 113° |
| 2026-05-06 18:11 | 48.11382 | 16.57025 | 604 ft | 15 kts | 115° |
| 2026-05-06 18:11 | 48.11315 | 16.57229 | 603 ft | 17 kts | 114° |
| 2026-05-06 18:11 | 48.11342 | 16.57353 | 600 ft | 15 kts | 26° |
| 2026-05-06 18:12 | 48.11427 | 16.57414 | 599 ft | 11 kts | 26° |
| 2026-05-06 18:12 | 48.11512 | 16.57463 | 598 ft | 13 kts | 1° |
| 2026-05-06 18:12 | 48.11609 | 16.57429 | 598 ft | 15 kts | 343° |
| 2026-05-06 18:12 | 48.11716 | 16.57382 | 597 ft | 17 kts | 343° |
| 2026-05-06 18:13 | 48.11819 | 16.57313 | 595 ft | 13 kts | 311° |
| 2026-05-06 18:13 | 48.11853 | 16.57209 | 596 ft | 11 kts | 278° |
| 2026-05-06 18:13 | 48.11865 | 16.57112 | 597 ft | 4 kts | 291° |
| 2026-05-06 18:13 | 48.11857 | 16.57081 | 598 ft | 2 kts | 217° |
| 2026-05-06 18:14 | 48.11837 | 16.57063 | 599 ft | 3 kts | 207° |
| 2026-05-06 18:14 | 48.11814 | 16.57047 | 601 ft | 3 kts | 205° |
| 2026-05-06 18:14 | 48.11809 | 16.57043 | 601 ft | 0 kts | 205° |